Time;durP1;ratioP1;P1;durP2;ratioP2;P2;SDS_P1;SDS_P2;PMS_P1;PMS_P2;Temp;Humidity;BMP_temperature;BMP_pressure;BME280_temperature;BME280_humidity;BME280_pressure;Samples;Min_cycle;Max_cycle;Signal;HPM_P1;HPM_P2
2023/07/01 00:01:46;;;;;;;;;;;17.50;99.90;;;;;;4974978;28;19936;-71
2023/07/01 00:04:12;;;;;;;;;;;17.50;99.90;;;;;;4974858;28;20014;-70
2023/07/01 00:06:41;;;;;;;;;;;17.50;99.90;;;;;;4975471;28;19936;-71
2023/07/01 00:09:09;;;;;;;;;;;17.50;99.90;;;;;;4973717;28;20334;-71
2023/07/01 00:11:34;;;;;;;;;;;17.50;99.90;;;;;;4973524;28;19925;-70
2023/07/01 00:14:00;;;;;;;;;;;17.50;99.90;;;;;;4972733;28;19928;-70
2023/07/01 00:16:25;;;;;;;;;;;17.40;99.90;;;;;;4990590;28;20797;-71
2023/07/01 00:18:51;;;;;;;;;;;17.40;99.90;;;;;;4990562;28;20509;-70
2023/07/01 00:21:17;;;;;;;;;;;17.40;99.90;;;;;;4972341;28;19975;-70
2023/07/01 00:23:42;;;;;;;;;;;17.30;99.90;;;;;;4977559;28;20232;-70
2023/07/01 00:26:08;;;;;;;;;;;17.40;99.90;;;;;;4992737;28;20077;-70
2023/07/01 00:28:33;;;;;;;;;;;17.30;99.90;;;;;;4992805;28;19937;-71
2023/07/01 00:30:59;;;;;;;;;;;17.30;99.90;;;;;;4974989;28;19925;-70
2023/07/01 00:33:25;;;;;;;;;;;17.30;99.90;;;;;;4977236;28;19987;-71
2023/07/01 00:35:50;;;;;;;;;;;17.30;99.90;;;;;;4975911;28;20577;-71
2023/07/01 00:38:16;;;;;;;;;;;17.30;99.90;;;;;;4974098;28;20355;-70
2023/07/01 00:40:41;;;;;;;;;;;17.30;99.90;;;;;;4991877;28;19930;-71
2023/07/01 00:43:07;;;;;;;;;;;17.30;99.90;;;;;;4972401;28;20011;-70
2023/07/01 00:45:32;;;;;;;;;;;17.30;99.90;;;;;;4975362;28;19964;-70
2023/07/01 00:47:58;;;;;;;;;;;17.30;99.90;;;;;;4976673;28;19952;-70
2023/07/01 00:50:24;;;;;;;;;;;17.30;99.90;;;;;;4974387;28;19936;-69
2023/07/01 00:52:49;;;;;;;;;;;17.30;99.90;;;;;;4991720;28;19975;-71
2023/07/01 00:55:15;;;;;;;;;;;17.30;99.90;;;;;;4974830;28;19941;-70
2023/07/01 00:57:41;;;;;;;;;;;17.30;99.90;;;;;;4979373;28;19926;-71
2023/07/01 01:00:10;;;;;;;;;;;17.20;99.90;;;;;;4991086;28;19932;-70
2023/07/01 01:02:46;;;;;;;;;;;17.30;99.90;;;;;;4975109;28;19925;-70
2023/07/01 01:05:15;;;;;;;;;;;17.20;99.90;;;;;;4957666;28;19925;-71
2023/07/01 01:07:56;;;;;;;;;;;17.10;99.90;;;;;;4973133;28;20008;-71
2023/07/01 01:10:22;;;;;;;;;;;17.00;99.90;;;;;;4973842;28;19926;-70
2023/07/01 01:12:50;;;;;;;;;;;17.00;99.90;;;;;;4960063;28;19917;-70
2023/07/01 01:15:16;;;;;;;;;;;17.00;99.90;;;;;;4972295;28;19928;-71
2023/07/01 01:17:43;;;;;;;;;;;16.90;99.90;;;;;;4976573;28;19933;-80
2023/07/01 01:20:13;;;;;;;;;;;16.90;99.90;;;;;;4973741;28;20636;-72
2023/07/01 01:22:38;;;;;;;;;;;16.90;99.90;;;;;;4975871;28;21117;-67
2023/07/01 01:25:05;;;;;;;;;;;16.80;99.90;;;;;;4992037;28;19925;-67
2023/07/01 01:27:38;;;;;;;;;;;16.80;99.90;;;;;;4992459;28;19925;-68
2023/07/01 01:30:06;;;;;;;;;;;16.80;99.90;;;;;;4973251;28;21674;-66
2023/07/01 01:32:33;;;;;;;;;;;16.80;99.90;;;;;;4975301;28;19944;-68
2023/07/01 01:34:59;;;;;;;;;;;16.70;99.90;;;;;;4975541;28;19984;-67
2023/07/01 01:37:46;;;;;;;;;;;16.70;99.90;;;;;;4968759;28;19929;-67
2023/07/01 01:40:15;;;;;;;;;;;16.60;99.90;;;;;;4990496;28;19921;-68
2023/07/01 01:42:42;;;;;;;;;;;16.60;99.90;;;;;;4991718;28;19925;-67
2023/07/01 01:45:09;;;;;;;;;;;16.60;99.90;;;;;;4992026;28;20475;-66
2023/07/01 01:47:35;;;;;;;;;;;16.50;99.90;;;;;;4972410;28;19922;-66
2023/07/01 01:50:02;;;;;;;;;;;16.60;99.90;;;;;;4975153;28;19925;-66
2023/07/01 01:52:28;;;;;;;;;;;16.60;99.90;;;;;;4974451;28;20284;-67
2023/07/01 01:54:55;;;;;;;;;;;16.60;99.90;;;;;;4969393;28;19921;-67
2023/07/01 01:57:21;;;;;;;;;;;16.60;99.90;;;;;;4991285;28;19975;-67
2023/07/01 01:59:47;;;;;;;;;;;16.60;99.90;;;;;;4973329;28;19933;-67
2023/07/01 02:02:12;;;;;;;;;;;16.60;99.90;;;;;;4991038;28;19925;-66
2023/07/01 02:04:38;;;;;;;;;;;16.70;99.90;;;;;;4991568;28;19929;-67
2023/07/01 02:07:03;;;;;;;;;;;16.70;99.90;;;;;;4992616;28;19944;-66
2023/07/01 02:09:29;;;;;;;;;;;16.70;99.90;;;;;;4959604;28;19951;-66
2023/07/01 02:11:55;;;;;;;;;;;16.70;99.90;;;;;;4973786;28;21776;-66
2023/07/01 02:14:21;;;;;;;;;;;16.80;99.90;;;;;;4990590;28;19949;-67
2023/07/01 02:16:47;;;;;;;;;;;16.70;99.90;;;;;;4992613;28;21831;-66
2023/07/01 02:19:12;;;;;;;;;;;16.70;99.90;;;;;;4971293;28;19976;-66
2023/07/01 02:21:38;;;;;;;;;;;16.70;99.90;;;;;;4991568;28;19928;-66
2023/07/01 02:24:04;;;;;;;;;;;16.70;99.90;;;;;;4991008;28;19932;-66
2023/07/01 02:26:29;;;;;;;;;;;16.70;99.90;;;;;;4991833;28;19996;-68
2023/07/01 02:28:55;;;;;;;;;;;16.80;99.90;;;;;;4975077;28;19932;-68
2023/07/01 02:31:20;;;;;;;;;;;16.80;99.90;;;;;;4991302;28;19968;-66
2023/07/01 02:33:46;;;;;;;;;;;16.80;99.90;;;;;;4991729;28;20439;-67
2023/07/01 02:36:12;;;;;;;;;;;16.80;99.90;;;;;;4989092;28;19931;-66
2023/07/01 02:38:38;;;;;;;;;;;16.80;99.90;;;;;;4990724;28;20311;-66
2023/07/01 02:41:03;;;;;;;;;;;16.80;99.90;;;;;;4990397;28;19983;-67
2023/07/01 02:43:29;;;;;;;;;;;16.80;99.90;;;;;;4990007;28;20035;-68
2023/07/01 02:45:54;;;;;;;;;;;16.80;99.90;;;;;;4991403;28;20493;-66
2023/07/01 02:48:20;;;;;;;;;;;16.90;99.90;;;;;;4991655;28;19984;-67
2023/07/01 02:50:45;;;;;;;;;;;16.80;99.90;;;;;;4992282;28;20314;-67
2023/07/01 02:53:11;;;;;;;;;;;16.80;99.90;;;;;;4990563;28;20188;-67
2023/07/01 02:55:36;;;;;;;;;;;16.80;99.90;;;;;;4990598;28;19932;-68
2023/07/01 02:58:02;;;;;;;;;;;16.70;99.90;;;;;;4992318;28;19940;-67
2023/07/01 03:00:27;;;;;;;;;;;16.70;99.90;;;;;;4990752;28;19925;-68
2023/07/01 03:02:53;;;;;;;;;;;16.70;99.90;;;;;;4991860;28;20008;-66
2023/07/01 03:05:21;;;;;;;;;;;16.70;99.90;;;;;;4991368;28;20008;-67
2023/07/01 03:07:51;;;;;;;;;;;16.60;99.90;;;;;;4991138;28;19918;-66
2023/07/01 03:10:16;;;;;;;;;;;16.60;99.90;;;;;;4990101;28;20844;-66
2023/07/01 03:12:42;;;;;;;;;;;16.40;99.90;;;;;;4990055;28;20102;-67
2023/07/01 03:15:08;;;;;;;;;;;16.40;99.90;;;;;;4991033;28;19929;-67
2023/07/01 03:17:34;;;;;;;;;;;16.40;99.90;;;;;;4991553;28;19952;-66
2023/07/01 03:20:00;;;;;;;;;;;16.30;99.90;;;;;;4990357;28;20260;-68
2023/07/01 03:22:25;;;;;;;;;;;16.30;99.90;;;;;;4990489;28;20481;-67
2023/07/01 03:24:51;;;;;;;;;;;16.30;99.90;;;;;;4992079;28;20359;-67
2023/07/01 03:27:16;;;;;;;;;;;16.20;99.90;;;;;;4995275;28;19926;-68
2023/07/01 03:29:42;;;;;;;;;;;16.20;99.90;;;;;;4995255;28;20200;-67
2023/07/01 03:32:08;;;;;;;;;;;16.20;99.90;;;;;;4995880;28;19976;-67
2023/07/01 03:34:33;;;;;;;;;;;16.10;99.90;;;;;;4975286;28;19925;-67
2023/07/01 03:36:59;;;;;;;;;;;16.10;99.90;;;;;;4976281;28;19925;-66
2023/07/01 03:39:24;;;;;;;;;;;16.10;99.90;;;;;;4991032;28;19926;-67
2023/07/01 03:41:50;;;;;;;;;;;16.00;99.90;;;;;;4975492;28;20318;-67
2023/07/01 03:44:15;;;;;;;;;;;16.00;99.90;;;;;;4994192;28;19933;-67
2023/07/01 03:46:42;;;;;;;;;;;16.00;99.90;;;;;;4994696;28;19933;-66
2023/07/01 03:49:07;;;;;;;;;;;16.00;99.90;;;;;;4994167;28;19925;-67
2023/07/01 03:51:33;;;;;;;;;;;16.00;99.90;;;;;;4993125;28;19925;-67
2023/07/01 03:53:58;;;;;;;;;;;15.90;99.90;;;;;;4975019;28;19925;-66
2023/07/01 03:56:25;;;;;;;;;;;15.90;99.90;;;;;;4993308;28;19979;-66
2023/07/01 03:58:51;;;;;;;;;;;15.90;99.90;;;;;;4975230;28;20387;-66
2023/07/01 04:01:17;;;;;;;;;;;15.80;99.90;;;;;;4992483;28;20009;-65
2023/07/01 04:03:43;;;;;;;;;;;15.90;99.90;;;;;;4975621;28;19926;-66
2023/07/01 04:06:08;;;;;;;;;;;15.80;99.90;;;;;;4975407;28;19925;-66
2023/07/01 04:08:34;;;;;;;;;;;15.80;99.90;;;;;;4975608;28;19921;-66
2023/07/01 04:11:00;;;;;;;;;;;15.80;99.90;;;;;;4975511;28;19939;-66
2023/07/01 04:13:25;;;;;;;;;;;15.80;99.90;;;;;;4975739;28;19964;-65
2023/07/01 04:15:51;;;;;;;;;;;15.80;99.90;;;;;;4992767;28;19925;-66
2023/07/01 04:18:16;;;;;;;;;;;15.80;99.90;;;;;;4994605;28;19925;-66
2023/07/01 04:20:42;;;;;;;;;;;15.70;99.90;;;;;;4977662;28;19937;-66
2023/07/01 04:23:07;;;;;;;;;;;15.70;99.90;;;;;;4974686;28;19925;-67
2023/07/01 04:25:34;;;;;;;;;;;15.70;99.90;;;;;;4960579;28;19927;-66
2023/07/01 04:28:01;;;;;;;;;;;15.70;99.90;;;;;;4976733;28;19921;-66
2023/07/01 04:30:27;;;;;;;;;;;15.70;99.90;;;;;;4961476;28;19925;-67
2023/07/01 04:32:52;;;;;;;;;;;15.70;99.90;;;;;;4993331;28;19921;-66
2023/07/01 04:35:18;;;;;;;;;;;15.70;99.90;;;;;;4993538;28;19925;-66
2023/07/01 04:37:43;;;;;;;;;;;15.70;99.90;;;;;;4977728;28;19968;-67
2023/07/01 04:40:09;;;;;;;;;;;15.70;99.90;;;;;;4975138;28;19968;-67
2023/07/01 04:42:35;;;;;;;;;;;15.70;99.90;;;;;;4973816;28;19936;-65
2023/07/01 04:45:01;;;;;;;;;;;15.70;99.90;;;;;;4992285;28;20295;-66
2023/07/01 04:47:27;;;;;;;;;;;15.70;99.90;;;;;;4993305;28;19973;-67
2023/07/01 04:49:53;;;;;;;;;;;15.70;99.90;;;;;;4972963;28;20346;-66
2023/07/01 04:52:22;;;;;;;;;;;15.70;99.90;;;;;;4993838;28;19925;-66
2023/07/01 04:54:48;;;;;;;;;;;15.70;99.90;;;;;;4993479;28;20351;-66
2023/07/01 04:57:14;;;;;;;;;;;15.70;99.90;;;;;;4993656;28;20020;-66
2023/07/01 04:59:39;;;;;;;;;;;15.70;99.90;;;;;;4972621;28;20337;-66
2023/07/01 05:02:05;;;;;;;;;;;15.70;99.90;;;;;;4973874;28;19976;-65
2023/07/01 05:04:30;;;;;;;;;;;15.70;99.90;;;;;;4990151;28;19921;-66
2023/07/01 05:06:56;;;;;;;;;;;15.70;99.90;;;;;;4975929;28;19948;-65
2023/07/01 05:09:21;;;;;;;;;;;15.70;99.90;;;;;;4972986;28;19929;-66
2023/07/01 05:11:47;;;;;;;;;;;15.70;99.90;;;;;;4976386;28;19926;-67
2023/07/01 05:14:12;;;;;;;;;;;15.70;99.90;;;;;;4973728;28;19932;-66
2023/07/01 05:16:38;;;;;;;;;;;15.70;99.90;;;;;;4992255;28;19968;-67
2023/07/01 05:19:04;;;;;;;;;;;15.70;99.90;;;;;;4977711;28;19925;-66
2023/07/01 05:21:30;;;;;;;;;;;15.70;99.90;;;;;;4992640;28;19925;-67
2023/07/01 05:23:55;;;;;;;;;;;15.80;99.90;;;;;;4991429;28;19925;-66
2023/07/01 05:26:21;;;;;;;;;;;15.80;99.90;;;;;;4993127;28;19925;-66
2023/07/01 05:28:46;;;;;;;;;;;15.80;99.90;;;;;;4990407;28;19925;-66
2023/07/01 05:31:12;;;;;;;;;;;15.80;99.90;;;;;;4959799;28;19926;-67
2023/07/01 05:33:38;;;;;;;;;;;15.80;99.90;;;;;;4973373;28;19921;-66
2023/07/01 05:36:03;;;;;;;;;;;15.90;99.90;;;;;;4991680;28;20034;-66
2023/07/01 05:38:29;;;;;;;;;;;15.80;99.90;;;;;;4972829;28;19925;-65
2023/07/01 05:40:54;;;;;;;;;;;15.90;99.90;;;;;;4975982;28;19921;-67
2023/07/01 05:43:20;;;;;;;;;;;15.90;99.90;;;;;;4974165;28;19971;-67
2023/07/01 05:45:45;;;;;;;;;;;15.90;99.90;;;;;;4991514;28;19975;-66
2023/07/01 05:48:11;;;;;;;;;;;15.90;99.90;;;;;;4972878;28;20417;-67
2023/07/01 05:50:38;;;;;;;;;;;15.90;99.90;;;;;;4993086;28;20602;-67
2023/07/01 05:53:03;;;;;;;;;;;16.00;99.90;;;;;;4992168;28;19918;-66
2023/07/01 05:55:29;;;;;;;;;;;16.00;99.90;;;;;;4992359;28;19931;-67
2023/07/01 05:57:54;;;;;;;;;;;16.00;99.90;;;;;;4972044;28;19921;-68
2023/07/01 06:00:21;;;;;;;;;;;16.00;99.90;;;;;;4990855;28;20488;-68
2023/07/01 06:02:47;;;;;;;;;;;16.00;99.90;;;;;;4975036;28;19921;-67
2023/07/01 06:05:12;;;;;;;;;;;16.00;99.90;;;;;;4990687;28;19956;-67
2023/07/01 06:07:38;;;;;;;;;;;16.10;99.90;;;;;;4974356;28;20031;-68
2023/07/01 06:10:04;;;;;;;;;;;16.10;99.90;;;;;;4988585;28;20607;-67
2023/07/01 06:12:29;;;;;;;;;;;16.10;99.90;;;;;;4991802;28;20395;-68
2023/07/01 06:14:55;;;;;;;;;;;16.10;99.90;;;;;;4974819;28;19968;-68
2023/07/01 06:17:20;;;;;;;;;;;16.10;99.90;;;;;;4972466;28;20067;-67
2023/07/01 06:19:46;;;;;;;;;;;16.20;99.90;;;;;;4973369;28;20417;-68
2023/07/01 06:22:11;;;;;;;;;;;16.20;99.90;;;;;;4974820;28;19978;-68
2023/07/01 06:24:37;;;;;;;;;;;16.20;99.90;;;;;;4974010;28;19927;-67
2023/07/01 06:27:03;;;;;;;;;;;16.20;99.90;;;;;;4991686;28;19926;-67
2023/07/01 06:29:29;;;;;;;;;;;16.20;99.90;;;;;;4973642;28;19930;-66
2023/07/01 06:31:54;;;;;;;;;;;16.20;99.90;;;;;;4990969;28;20606;-66
2023/07/01 06:34:20;;;;;;;;;;;16.20;99.90;;;;;;4992577;28;19923;-66
2023/07/01 06:36:45;;;;;;;;;;;16.30;99.90;;;;;;4992097;28;19921;-66
2023/07/01 06:39:12;;;;;;;;;;;16.30;99.90;;;;;;4992465;28;19960;-66
2023/07/01 06:41:38;;;;;;;;;;;16.30;99.90;;;;;;4977148;28;19921;-67
2023/07/01 06:44:03;;;;;;;;;;;16.30;99.90;;;;;;4971652;28;19974;-66
2023/07/01 06:46:29;;;;;;;;;;;16.30;99.90;;;;;;4972225;28;19956;-67
2023/07/01 06:48:54;;;;;;;;;;;16.40;99.90;;;;;;4974158;28;19917;-66
2023/07/01 06:51:20;;;;;;;;;;;16.40;99.90;;;;;;4973553;28;19925;-66
2023/07/01 06:53:46;;;;;;;;;;;16.40;99.90;;;;;;4990544;28;20482;-67
2023/07/01 06:56:11;;;;;;;;;;;16.40;99.90;;;;;;4973617;28;19991;-66
2023/07/01 06:58:37;;;;;;;;;;;16.50;99.90;;;;;;4991638;28;19979;-66
2023/07/01 07:01:03;;;;;;;;;;;16.50;99.90;;;;;;4973586;28;19928;-66
2023/07/01 07:03:28;;;;;;;;;;;16.50;99.90;;;;;;4974591;28;19921;-66
2023/07/01 07:05:55;;;;;;;;;;;16.50;99.90;;;;;;4990817;28;19921;-66
2023/07/01 07:08:21;;;;;;;;;;;16.60;99.90;;;;;;4988896;28;19921;-65
2023/07/01 07:10:46;;;;;;;;;;;16.60;99.90;;;;;;4990300;28;20371;-66
2023/07/01 07:13:12;;;;;;;;;;;16.60;99.90;;;;;;4974099;28;19930;-65
2023/07/01 07:15:38;;;;;;;;;;;16.70;99.90;;;;;;4990000;28;19921;-66
2023/07/01 07:18:06;;;;;;;;;;;16.60;99.90;;;;;;4972010;28;19921;-66
2023/07/01 07:20:31;;;;;;;;;;;16.70;99.90;;;;;;4988886;28;19998;-66
2023/07/01 07:22:57;;;;;;;;;;;16.70;99.90;;;;;;4957496;28;19929;-66
2023/07/01 07:25:23;;;;;;;;;;;16.70;99.90;;;;;;4974213;28;19921;-66
2023/07/01 07:27:48;;;;;;;;;;;16.80;99.90;;;;;;4989831;28;20016;-66
2023/07/01 07:30:14;;;;;;;;;;;16.80;99.90;;;;;;4989792;28;20601;-66
2023/07/01 07:32:40;;;;;;;;;;;16.80;99.90;;;;;;4990361;28;19935;-66
2023/07/01 07:35:06;;;;;;;;;;;16.80;99.90;;;;;;4968227;28;20368;-67
2023/07/01 07:37:31;;;;;;;;;;;16.80;99.90;;;;;;4972617;28;19921;-66
2023/07/01 07:39:59;;;;;;;;;;;16.90;99.90;;;;;;4990281;28;19925;-66
2023/07/01 07:42:25;;;;;;;;;;;16.80;99.90;;;;;;4972250;28;20028;-66
2023/07/01 07:44:51;;;;;;;;;;;16.90;99.90;;;;;;4973601;28;19937;-66
2023/07/01 07:47:16;;;;;;;;;;;16.90;99.90;;;;;;4970156;28;19925;-67
2023/07/01 07:49:42;;;;;;;;;;;16.90;99.90;;;;;;4990031;28;19929;-67
2023/07/01 07:52:07;;;;;;;;;;;16.90;99.90;;;;;;4974218;28;19925;-67
2023/07/01 07:54:33;;;;;;;;;;;17.00;99.90;;;;;;4989986;28;19917;-65
2023/07/01 07:56:59;;;;;;;;;;;17.00;99.90;;;;;;4989339;28;19927;-67
2023/07/01 07:59:25;;;;;;;;;;;17.00;99.90;;;;;;4955031;28;20008;-66
2023/07/01 08:01:52;;;;;;;;;;;17.00;99.90;;;;;;4986889;28;20016;-67
2023/07/01 08:04:17;;;;;;;;;;;17.00;99.90;;;;;;4973285;28;22341;-66
2023/07/01 08:06:43;;;;;;;;;;;17.00;99.90;;;;;;4988388;28;19917;-65
2023/07/01 08:09:08;;;;;;;;;;;17.10;99.90;;;;;;4971485;28;19921;-66
2023/07/01 08:11:34;;;;;;;;;;;17.10;99.90;;;;;;4974451;28;19925;-66
2023/07/01 08:14:00;;;;;;;;;;;17.10;99.90;;;;;;4992217;28;20303;-67
2023/07/01 08:16:25;;;;;;;;;;;17.20;99.90;;;;;;4993031;28;20698;-67
2023/07/01 08:18:51;;;;;;;;;;;17.20;99.90;;;;;;4973723;28;19968;-67
2023/07/01 08:21:16;;;;;;;;;;;17.20;99.90;;;;;;4993373;28;19921;-67
2023/07/01 08:23:42;;;;;;;;;;;17.20;99.90;;;;;;4993644;28;20327;-67
2023/07/01 08:26:07;;;;;;;;;;;17.20;99.90;;;;;;4976508;28;19925;-66
2023/07/01 08:28:33;;;;;;;;;;;17.30;99.90;;;;;;4973726;28;20431;-67
2023/07/01 08:30:58;;;;;;;;;;;17.30;99.90;;;;;;4994032;28;20051;-67
2023/07/01 08:33:25;;;;;;;;;;;17.30;99.90;;;;;;4995106;28;19918;-66
2023/07/01 08:35:54;;;;;;;;;;;17.40;99.90;;;;;;4974978;28;19925;-66
2023/07/01 08:38:20;;;;;;;;;;;17.40;99.90;;;;;;4974883;28;19936;-66
2023/07/01 08:40:46;;;;;;;;;;;17.50;99.90;;;;;;4990978;28;20552;-67
2023/07/01 08:43:12;;;;;;;;;;;17.50;99.90;;;;;;4974291;28;20413;-66
2023/07/01 08:45:38;;;;;;;;;;;17.50;99.90;;;;;;4969697;28;19925;-66
2023/07/01 08:48:05;;;;;;;;;;;17.50;99.90;;;;;;4993781;28;20255;-66
2023/07/01 08:50:41;;;;;;;;;;;17.60;99.90;;;;;;4972579;28;19926;-66
2023/07/01 08:53:08;;;;;;;;;;;17.60;99.90;;;;;;4992555;28;19921;-67
2023/07/01 08:55:34;;;;;;;;;;;17.60;99.90;;;;;;4955707;28;19917;-67
2023/07/01 08:58:00;;;;;;;;;;;17.70;99.90;;;;;;4973717;28;19927;-67
2023/07/01 09:00:26;;;;;;;;;;;17.70;99.90;;;;;;4974696;28;19921;-67
2023/07/01 09:02:52;;;;;;;;;;;17.70;99.90;;;;;;4993362;28;19925;-67
2023/07/01 09:05:17;;;;;;;;;;;17.70;99.90;;;;;;4973226;28;19925;-67
2023/07/01 09:07:43;;;;;;;;;;;17.70;99.90;;;;;;4959463;28;19917;-67
2023/07/01 09:10:11;;;;;;;;;;;17.70;99.90;;;;;;4972992;28;20337;-65
2023/07/01 09:12:36;;;;;;;;;;;17.70;99.90;;;;;;4971408;28;19917;-67
2023/07/01 09:15:03;;;;;;;;;;;17.80;99.90;;;;;;4991795;28;19917;-67
2023/07/01 09:17:33;;;;;;;;;;;17.80;99.90;;;;;;4992045;28;19925;-66
2023/07/01 09:20:04;;;;;;;;;;;17.90;99.90;;;;;;4972302;28;19932;-66
2023/07/01 09:22:30;;;;;;;;;;;17.90;99.90;;;;;;4992015;28;20477;-66
2023/07/01 09:24:56;;;;;;;;;;;17.90;99.90;;;;;;4971362;28;20042;-65
2023/07/01 09:27:22;;;;;;;;;;;18.00;99.90;;;;;;4988886;23;19925;-71
2023/07/01 09:29:47;;;;;;;;;;;18.00;99.90;;;;;;4996161;28;19996;-72
2023/07/01 09:32:28;;;;;;;;;;;18.00;99.90;;;;;;4998313;28;19921;-71
2023/07/01 09:34:57;;;;;;;;;;;18.00;99.90;;;;;;4980223;28;19974;-72
2023/07/01 09:37:25;;;;;;;;;;;18.00;99.90;;;;;;4998317;28;20537;-72
2023/07/01 09:39:51;;;;;;;;;;;18.00;99.90;;;;;;4980982;28;19931;-71
2023/07/01 09:42:18;;;;;;;;;;;18.00;99.90;;;;;;4998144;28;19925;-71
2023/07/01 09:45:02;;;;;;;;;;;18.00;99.90;;;;;;4998411;28;19971;-71
2023/07/01 09:47:28;;;;;;;;;;;18.00;99.90;;;;;;4980742;28;19928;-71
2023/07/01 09:49:54;;;;;;;;;;;18.00;99.90;;;;;;4959582;28;20016;-71
2023/07/01 09:52:30;;;;;;;;;;;18.10;99.90;;;;;;4961969;28;20441;-71
2023/07/01 09:54:56;;;;;;;;;;;18.10;99.90;;;;;;4979404;28;20014;-71
2023/07/01 09:57:22;;;;;;;;;;;18.20;99.90;;;;;;5000516;28;20286;-71
2023/07/01 09:59:47;;;;;;;;;;;18.20;99.90;;;;;;4998862;28;20465;-71
2023/07/01 10:02:13;;;;;;;;;;;18.30;99.90;;;;;;4998869;28;20310;-71
2023/07/01 10:04:39;;;;;;;;;;;18.40;99.90;;;;;;4997094;28;19967;-71
2023/07/01 10:07:07;;;;;;;;;;;18.50;99.90;;;;;;4978400;28;19917;-70
2023/07/01 10:09:32;;;;;;;;;;;18.50;99.90;;;;;;4979310;28;20360;-70
2023/07/01 10:11:59;;;;;;;;;;;18.60;99.90;;;;;;4997166;28;20056;-70
2023/07/01 10:14:26;;;;;;;;;;;18.70;99.90;;;;;;4978907;28;19980;-71
2023/07/01 10:16:51;;;;;;;;;;;18.70;99.90;;;;;;4988099;28;20017;-71
2023/07/01 10:19:27;;;;;;;;;;;18.70;99.90;;;;;;4998062;28;19925;-71
2023/07/01 10:21:53;;;;;;;;;;;18.60;99.90;;;;;;4977060;28;20333;-72
2023/07/01 10:24:35;;;;;;;;;;;18.60;99.90;;;;;;4994556;28;20023;-72
2023/07/01 10:27:00;;;;;;;;;;;18.60;99.90;;;;;;4975546;28;19956;-71
2023/07/01 10:29:30;;;;;;;;;;;18.50;99.90;;;;;;4980431;28;19921;-71
2023/07/01 10:32:25;;;;;;;;;;;18.50;99.90;;;;;;4996214;28;19917;-72
2023/07/01 10:34:53;;;;;;;;;;;18.50;99.90;;;;;;4948048;28;20406;-72
2023/07/01 10:37:20;;;;;;;;;;;18.50;99.90;;;;;;4978586;28;19925;-72
2023/07/01 10:39:45;;;;;;;;;;;18.50;99.90;;;;;;4963013;28;19921;-72
2023/07/01 10:42:33;;;;;;;;;;;18.60;99.90;;;;;;4979810;28;20390;-72
2023/07/01 10:45:11;;;;;;;;;;;18.60;99.90;;;;;;4981538;28;19925;-72
2023/07/01 10:47:43;;;;;;;;;;;18.60;99.90;;;;;;4979841;28;20497;-72
2023/07/01 10:50:10;;;;;;;;;;;18.60;99.90;;;;;;4994202;28;19929;-71
2023/07/01 10:52:54;;;;;;;;;;;18.60;99.90;;;;;;4997777;28;19922;-72
2023/07/01 10:55:39;;;;;;;;;;;18.70;99.90;;;;;;4992065;28;20386;-71
2023/07/01 10:58:15;;;;;;;;;;;18.70;99.90;;;;;;4976039;28;19933;-71
2023/07/01 11:00:41;;;;;;;;;;;18.80;99.90;;;;;;4954420;28;19929;-71
2023/07/01 11:03:25;;;;;;;;;;;18.80;99.90;;;;;;4994883;28;20028;-71
2023/07/01 11:06:00;;;;;;;;;;;18.80;99.90;;;;;;4979560;28;19936;-72
2023/07/01 11:08:26;;;;;;;;;;;18.80;99.90;;;;;;4976869;28;20397;-72
2023/07/01 11:10:52;;;;;;;;;;;18.80;99.90;;;;;;4991632;28;20264;-72
2023/07/01 11:13:18;;;;;;;;;;;18.80;99.90;;;;;;4995084;28;19976;-71
2023/07/01 11:15:59;;;;;;;;;;;18.70;99.90;;;;;;4975242;28;19921;-71
2023/07/01 11:18:39;;;;;;;;;;;18.60;99.90;;;;;;4994435;28;19960;-71
2023/07/01 11:21:04;;;;;;;;;;;18.60;99.90;;;;;;4994767;28;19925;-71
2023/07/01 11:23:30;;;;;;;;;;;18.50;99.90;;;;;;4995337;28;19971;-71
2023/07/01 11:25:55;;;;;;;;;;;18.50;99.90;;;;;;4976136;28;20037;-72
2023/07/01 11:28:31;;;;;;;;;;;18.50;99.90;;;;;;4975524;28;19926;-71
2023/07/01 11:31:08;;;;;;;;;;;18.50;99.90;;;;;;4992202;28;19929;-71
2023/07/01 11:33:33;;;;;;;;;;;18.60;99.90;;;;;;4958205;28;19991;-71
2023/07/01 11:35:59;;;;;;;;;;;18.60;99.90;;;;;;4992215;28;19921;-71
2023/07/01 11:38:26;;;;;;;;;;;18.80;99.90;;;;;;4974333;28;19925;-71
2023/07/01 11:40:52;;;;;;;;;;;18.90;99.90;;;;;;4974014;28;19964;-71
2023/07/01 11:43:18;;;;;;;;;;;19.00;99.90;;;;;;4974751;28;19960;-71
2023/07/01 11:45:46;;;;;;;;;;;19.10;99.90;;;;;;4974149;28;19917;-71
2023/07/01 11:48:11;;;;;;;;;;;19.00;99.90;;;;;;4972870;28;20004;-71
2023/07/01 11:50:52;;;;;;;;;;;19.00;99.90;;;;;;4979353;28;19936;-71
2023/07/01 11:53:18;;;;;;;;;;;19.00;99.90;;;;;;4979376;28;19932;-71
2023/07/01 11:55:44;;;;;;;;;;;18.90;99.90;;;;;;4978988;28;19925;-71
2023/07/01 11:58:28;;;;;;;;;;;18.90;99.90;;;;;;4995398;28;19925;-71
2023/07/01 12:00:54;;;;;;;;;;;18.90;99.90;;;;;;4972749;28;19921;-71
2023/07/01 12:03:20;;;;;;;;;;;19.00;99.90;;;;;;4977989;28;20002;-71
2023/07/01 12:05:46;;;;;;;;;;;19.00;99.90;;;;;;4990524;28;19922;-71
2023/07/01 12:08:12;;;;;;;;;;;18.90;99.90;;;;;;4988942;28;19921;-71
2023/07/01 12:10:39;;;;;;;;;;;18.90;99.90;;;;;;4990405;28;19980;-71
2023/07/01 12:13:06;;;;;;;;;;;18.80;99.90;;;;;;4963126;28;20338;-70
2023/07/01 12:15:32;;;;;;;;;;;18.80;99.90;;;;;;4973806;28;19932;-70
2023/07/01 12:18:17;;;;;;;;;;;18.80;99.90;;;;;;4946621;28;20386;-69
2023/07/01 12:20:42;;;;;;;;;;;18.80;99.90;;;;;;4994225;28;20338;-69
2023/07/01 12:23:08;;;;;;;;;;;18.90;99.90;;;;;;4993135;28;19921;-69
2023/07/01 12:25:33;;;;;;;;;;;18.90;99.90;;;;;;4978887;28;19921;-70
2023/07/01 12:27:59;;;;;;;;;;;18.90;99.90;;;;;;4980278;28;19928;-69
2023/07/01 12:30:25;;;;;;;;;;;19.00;99.90;;;;;;4997119;28;20439;-71
2023/07/01 12:32:50;;;;;;;;;;;19.10;99.90;;;;;;4979135;28;19967;-70
2023/07/01 12:35:17;;;;;;;;;;;19.20;99.90;;;;;;4980075;28;19932;-70
2023/07/01 12:37:44;;;;;;;;;;;19.00;99.90;;;;;;4978494;28;19978;-70
2023/07/01 12:40:11;;;;;;;;;;;19.00;99.90;;;;;;4977532;28;19920;-73
2023/07/01 12:42:37;;;;;;;;;;;18.80;99.90;;;;;;4993650;28;21499;-70
2023/07/01 12:45:03;;;;;;;;;;;18.80;99.90;;;;;;4977887;28;19920;-71
2023/07/01 12:47:28;;;;;;;;;;;18.70;99.90;;;;;;4995220;28;19967;-70
2023/07/01 12:49:54;;;;;;;;;;;18.70;99.90;;;;;;4978860;28;20020;-70
2023/07/01 12:52:20;;;;;;;;;;;18.70;99.90;;;;;;4976207;28;19960;-70
2023/07/01 12:54:45;;;;;;;;;;;18.80;99.90;;;;;;4979710;28;19963;-70
2023/07/01 12:57:11;;;;;;;;;;;18.80;99.90;;;;;;4978386;28;19949;-70
2023/07/01 12:59:37;;;;;;;;;;;18.80;99.90;;;;;;4994779;28;19928;-70
2023/07/01 13:02:04;;;;;;;;;;;18.80;99.90;;;;;;4991865;28;20163;-70
2023/07/01 13:04:29;;;;;;;;;;;18.80;99.90;;;;;;4994605;28;19951;-70
2023/07/01 13:06:55;;;;;;;;;;;18.80;99.90;;;;;;4978781;28;19925;-70
2023/07/01 13:09:36;;;;;;;;;;;18.80;99.90;;;;;;4977416;28;20151;-70
2023/07/01 13:12:02;;;;;;;;;;;18.80;99.90;;;;;;4975625;28;20485;-70
2023/07/01 13:14:30;;;;;;;;;;;18.80;99.90;;;;;;4978131;28;19952;-70
2023/07/01 13:16:56;;;;;;;;;;;18.80;99.90;;;;;;4995162;28;20015;-70
2023/07/01 13:19:21;;;;;;;;;;;18.80;99.90;;;;;;4975634;28;20722;-70
2023/07/01 13:21:48;;;;;;;;;;;18.80;99.90;;;;;;4978359;28;19926;-70
2023/07/01 13:24:14;;;;;;;;;;;18.70;99.90;;;;;;4977731;28;19925;-70
2023/07/01 13:26:46;;;;;;;;;;;18.80;99.90;;;;;;4978055;28;19921;-71
2023/07/01 13:29:16;;;;;;;;;;;18.70;99.90;;;;;;4993038;28;19921;-71
2023/07/01 13:31:43;;;;;;;;;;;18.70;99.90;;;;;;4992616;28;19932;-71
2023/07/01 13:34:09;;;;;;;;;;;18.70;99.90;;;;;;4995219;28;20344;-71
2023/07/01 13:36:39;;;;;;;;;;;18.60;99.90;;;;;;4978439;28;19933;-71
2023/07/01 13:39:09;;;;;;;;;;;18.60;99.90;;;;;;4992638;28;19963;-71
2023/07/01 13:41:35;;;;;;;;;;;18.40;99.90;;;;;;4992451;28;19940;-70
2023/07/01 13:44:01;;;;;;;;;;;18.40;99.90;;;;;;4978586;28;19921;-71
2023/07/01 13:46:37;;;;;;;;;;;18.30;99.90;;;;;;4976870;28;19921;-71
2023/07/01 13:49:03;;;;;;;;;;;18.30;99.90;;;;;;4992434;28;19948;-71
2023/07/01 13:51:36;;;;;;;;;;;18.30;99.90;;;;;;4978097;28;19991;-71
2023/07/01 13:54:03;;;;;;;;;;;18.30;99.90;;;;;;4975441;28;19921;-70
2023/07/01 13:56:29;;;;;;;;;;;18.30;99.90;;;;;;4978899;28;20020;-70
2023/07/01 13:58:54;;;;;;;;;;;18.30;99.90;;;;;;4978316;28;19925;-70
2023/07/01 14:01:20;;;;;;;;;;;18.40;99.90;;;;;;4991305;28;21552;-70
2023/07/01 14:03:51;;;;;;;;;;;18.50;99.90;;;;;;4981034;28;19925;-70
2023/07/01 14:06:17;;;;;;;;;;;18.50;99.90;;;;;;4997924;28;19924;-70
2023/07/01 14:08:45;;;;;;;;;;;18.50;99.90;;;;;;4996264;28;19926;-70
2023/07/01 14:11:15;;;;;;;;;;;18.60;99.90;;;;;;4995030;28;20574;-71
2023/07/01 14:13:41;;;;;;;;;;;18.50;99.90;;;;;;4994094;28;21426;-71
2023/07/01 14:16:07;;;;;;;;;;;18.50;99.90;;;;;;4977507;28;21088;-68